Terminal Aerodrome Forecast
Issued by NWS Boise, ID

Home | Current Version | Previous Version | Text Only | Print | Product List | Glossary On
Versions: 1 2 3 4 5 6 7 8 9 10 11 12 13 14 15 16 17 18 19
000
FTUS45 KBOI 060522
TAFBOI
TAF
KBOI 060522Z 0606/0706 32010KT P6SM SCT100 BKN200
     FM061600 30012G18KT P6SM SCT060 BKN120
     FM062000 30018G28KT P6SM VCTS SCT060CB OVC100 PROB30 0620/0702
      VRB30KT P6SM TSRAGS OVC050CB
     FM070200 29012KT P6SM -SHRA BKN060 OVC100=

USA.gov is the U.S. government's official web portal to all federal, state and local government web resources and services.